createdAt,value
2023-05-08T00:01:04.740Z,99713.45
2023-05-08T00:03:56.871Z,99714.96
2023-05-08T00:06:48.962Z,99718.05
2023-05-08T00:09:40.960Z,99716.55
2023-05-08T00:12:32.952Z,99721.52
2023-05-08T00:15:24.962Z,99724.83
2023-05-08T00:18:17.450Z,99722.92
2023-05-08T00:21:09.451Z,99723.67
2023-05-08T00:24:01.506Z,99725.47
2023-05-08T00:26:53.448Z,99728.43
2023-05-08T00:29:45.457Z,99727.60
2023-05-08T00:32:37.731Z,99727.77
2023-05-08T00:35:29.783Z,99731.23
2023-05-08T00:38:21.755Z,99733.26
2023-05-08T00:41:13.789Z,99732.75
2023-05-08T00:44:06.199Z,99732.91
2023-05-08T00:46:58.254Z,99728.39
2023-05-08T00:49:50.631Z,99736.06
2023-05-08T00:52:43.493Z,99737.77
2023-05-08T00:55:35.786Z,99735.09
2023-05-08T00:58:28.761Z,99731.98
2023-05-08T01:01:03.706Z,99733.00
2023-05-08T01:03:56.065Z,99728.31
2023-05-08T01:06:48.202Z,99729.26
2023-05-08T01:09:40.579Z,99732.77
2023-05-08T01:12:46.056Z,99736.73
2023-05-08T01:15:39.432Z,99736.23
2023-05-08T01:18:16.436Z,99738.15
2023-05-08T01:20:58.098Z,99740.38
2023-05-08T01:24:20.216Z,99743.16
2023-05-08T01:30:50.618Z,99745.14
2023-05-08T01:33:51.522Z,99752.77
2023-05-08T01:36:51.706Z,99750.90
2023-05-08T01:39:40.447Z,99757.75
2023-05-08T01:42:45.251Z,99755.30
2023-05-08T01:45:43.284Z,99753.80
2023-05-08T01:48:36.612Z,99755.44
2023-05-08T01:51:36.065Z,99751.67
2023-05-08T01:54:31.374Z,99753.45
2023-05-08T01:57:27.781Z,99754.52
2023-05-08T02:00:23.215Z,99752.21
2023-05-08T02:03:18.350Z,99749.44
2023-05-08T02:06:16.899Z,99754.36
2023-05-08T02:09:10.934Z,99755.73
2023-05-08T02:12:04.020Z,99757.98
2023-05-08T02:14:57.318Z,99755.38
2023-05-08T02:17:51.813Z,99759.70
2023-05-08T02:20:44.228Z,99767.23
2023-05-08T02:23:27.480Z,99764.39
2023-05-08T02:26:21.395Z,99765.86
2023-05-08T02:29:13.679Z,99764.07
2023-05-08T02:31:53.010Z,99770.14
2023-05-08T02:34:51.431Z,99771.23
2023-05-08T02:37:54.690Z,99773.64
2023-05-08T02:40:49.449Z,99769.41
2023-05-08T02:43:41.759Z,99773.55
2023-05-08T02:46:47.331Z,99772.95
2023-05-08T02:49:49.962Z,99774.77
2023-05-08T02:52:46.997Z,99772.90
2023-05-08T02:55:47.736Z,99774.06
2023-05-08T02:58:46.978Z,99776.65
2023-05-08T03:01:46.974Z,99768.96
2023-05-08T03:04:43.067Z,99772.95
2023-05-08T03:07:27.072Z,99774.66
2023-05-08T03:10:23.184Z,99769.22
2023-05-08T03:13:17.621Z,99770.79
2023-05-08T03:16:14.603Z,99769.50
2023-05-08T03:19:13.995Z,99779.59
2023-05-08T03:22:08.623Z,99779.25
2023-05-08T03:25:04.411Z,99781.19
2023-05-08T03:27:58.163Z,99785.19
2023-05-08T03:30:51.952Z,99786.94
2023-05-08T03:33:45.246Z,99791.98
2023-05-08T03:36:22.457Z,99791.94
2023-05-08T03:39:14.676Z,99794.54
2023-05-08T03:42:07.035Z,99792.77
2023-05-08T03:45:00.464Z,99792.88
2023-05-08T03:47:54.809Z,99793.95
2023-05-08T03:50:47.496Z,99801.80
2023-05-08T03:53:39.552Z,99798.43
2023-05-08T03:56:31.917Z,99800.92
2023-05-08T03:59:23.019Z,99798.29
2023-05-08T04:02:23.176Z,99799.35
2023-05-08T04:05:22.376Z,99798.11
2023-05-08T04:08:17.365Z,99799.61
2023-05-08T04:11:18.260Z,99796.41
2023-05-08T04:14:14.364Z,99801.94
2023-05-08T04:17:11.763Z,99799.95
2023-05-08T04:19:53.282Z,99801.45
2023-05-08T04:22:46.391Z,99802.01
2023-05-08T04:25:40.790Z,99808.98
2023-05-08T04:28:32.827Z,99818.90
2023-05-08T04:31:25.585Z,99821.52
2023-05-08T04:34:18.555Z,99826.55
2023-05-08T04:37:10.748Z,99828.10
2023-05-08T04:40:04.657Z,99829.52
2023-05-08T04:42:56.991Z,99835.52
2023-05-08T04:45:48.948Z,99839.77
2023-05-08T04:48:40.986Z,99847.73
2023-05-08T04:51:32.971Z,99852.55
2023-05-08T04:54:24.972Z,99854.06
2023-05-08T04:57:00.387Z,99857.61
2023-05-08T04:59:52.506Z,99859.64
2023-05-08T05:02:44.573Z,99863.70
2023-05-08T05:05:38.916Z,99864.88
2023-05-08T05:08:31.310Z,99874.81
2023-05-08T05:11:23.446Z,99876.36
2023-05-08T05:14:15.373Z,99881.30
2023-05-08T05:16:50.200Z,99884.08
2023-05-08T05:19:42.365Z,99880.19
2023-05-08T05:22:34.748Z,99882.09
2023-05-08T05:25:26.773Z,99882.20
2023-05-08T05:28:18.805Z,99889.48
2023-05-08T05:31:12.219Z,99887.86
2023-05-08T05:34:04.684Z,99885.88
2023-05-08T05:36:53.074Z,99890.90
2023-05-08T05:39:45.059Z,99897.30
2023-05-08T05:42:36.992Z,99897.98
2023-05-08T05:45:31.139Z,99903.63
2023-05-08T05:48:24.583Z,99909.81
2023-05-08T05:51:16.614Z,99911.27
2023-05-08T05:54:08.678Z,99912.19
2023-05-08T05:57:01.081Z,99912.59
2023-05-08T05:59:54.771Z,99918.02
2023-05-08T06:02:47.193Z,99924.44
2023-05-08T06:05:39.552Z,99931.77
2023-05-08T06:08:31.596Z,99932.45
2023-05-08T06:11:23.675Z,99941.50
2023-05-08T06:14:15.864Z,99945.87
2023-05-08T06:17:07.937Z,99947.04
2023-05-08T06:20:00.748Z,99945.48
2023-05-08T06:22:52.755Z,99951.54
2023-05-08T06:25:44.783Z,99952.51
2023-05-08T06:28:36.763Z,99952.38
2023-05-08T06:31:28.852Z,99952.77
2023-05-08T06:34:21.011Z,99951.80
2023-05-08T06:37:13.142Z,99954.29
2023-05-08T06:39:54.698Z,99963.02
2023-05-08T06:42:56.213Z,99960.67
2023-05-08T06:45:48.213Z,99962.17
2023-05-08T06:48:40.251Z,99952.67
2023-05-08T06:51:32.736Z,99944.10
2023-05-08T06:54:24.737Z,99952.03
2023-05-08T06:57:17.016Z,99953.73
2023-05-08T07:00:11.866Z,99949.83
2023-05-08T07:03:04.012Z,99949.64
2023-05-08T07:05:56.279Z,99952.21
2023-05-08T07:08:37.502Z,99953.98
2023-05-08T07:11:29.718Z,99955.71
2023-05-08T07:14:21.821Z,99956.13
2023-05-08T07:17:13.887Z,99957.67
2023-05-08T07:20:06.722Z,99963.30
2023-05-08T07:22:58.677Z,99973.84
2023-05-08T07:25:50.702Z,99970.30
2023-05-08T07:28:42.534Z,99970.25
2023-05-08T07:31:34.818Z,99967.33
2023-05-08T07:34:09.857Z,99969.52
2023-05-08T07:37:01.833Z,99970.92
2023-05-08T07:39:53.834Z,99971.84
2023-05-08T07:42:46.341Z,99967.39
2023-05-08T07:45:38.606Z,99969.86
2023-05-08T07:48:30.680Z,99967.63
2023-05-08T07:51:13.029Z,99971.78
2023-05-08T07:54:05.088Z,99971.36
2023-05-08T07:56:57.072Z,99967.46
2023-05-08T07:59:49.169Z,99973.34
2023-05-08T08:02:41.724Z,99973.44
2023-05-08T08:05:33.894Z,99970.73
2023-05-08T08:08:25.942Z,99971.42
2023-05-08T08:11:17.962Z,99968.74
2023-05-08T08:14:09.908Z,99969.73
2023-05-08T08:16:50.914Z,99971.34
2023-05-08T08:19:43.006Z,99969.56
2023-05-08T08:22:36.487Z,99969.79
2023-05-08T08:25:28.588Z,99963.03
2023-05-08T08:28:20.607Z,99968.48
2023-05-08T08:31:12.651Z,99963.59
2023-05-08T08:34:04.618Z,99965.50
2023-05-08T08:36:57.104Z,99963.93
2023-05-08T08:39:49.181Z,99961.28
2023-05-08T08:42:41.814Z,99962.80
2023-05-08T08:45:34.889Z,99961.56
2023-05-08T08:48:29.672Z,99962.60
2023-05-08T08:51:28.927Z,99964.29
2023-05-08T08:54:29.578Z,99962.06
2023-05-08T08:57:18.587Z,99962.08
2023-05-08T09:00:13.221Z,99967.04
2023-05-08T09:03:06.314Z,99965.11
2023-05-08T09:06:00.589Z,99962.30
2023-05-08T09:08:55.720Z,99971.86
2023-05-08T09:11:48.777Z,99973.09
2023-05-08T09:14:26.739Z,99969.13
2023-05-08T09:17:18.805Z,99967.79
2023-05-08T09:20:15.332Z,99964.84
2023-05-08T09:23:07.761Z,99956.76
2023-05-08T09:25:59.714Z,99963.42
2023-05-08T09:29:08.562Z,99961.89
2023-05-08T09:32:00.669Z,99955.11
2023-05-08T09:34:56.153Z,99960.81
2023-05-08T09:37:47.508Z,99961.48
2023-05-08T09:40:39.648Z,99954.33
2023-05-08T09:43:31.681Z,99953.11
2023-05-08T09:46:25.368Z,99950.14
2023-05-08T09:49:20.439Z,99944.51
2023-05-08T09:52:18.027Z,99948.69
2023-05-08T09:55:02.962Z,99943.32
2023-05-08T09:57:59.705Z,99948.24
2023-05-08T10:00:52.491Z,99948.23
2023-05-08T10:03:52.726Z,99948.73
2023-05-08T10:06:45.068Z,99948.75
2023-05-08T10:09:49.876Z,99949.80
2023-05-08T10:12:42.953Z,99938.46
2023-05-08T10:15:38.728Z,99940.67
2023-05-08T10:18:36.294Z,99943.43
2023-05-08T10:21:33.131Z,99944.02
2023-05-08T10:24:30.498Z,99943.21
2023-05-08T10:27:31.808Z,99937.29
2023-05-08T10:30:27.841Z,99945.46
2023-05-08T10:33:27.297Z,99948.05
2023-05-08T10:36:21.281Z,99949.70
2023-05-08T10:39:14.699Z,99946.33
2023-05-08T10:41:50.071Z,99946.62
2023-05-08T10:44:42.550Z,99940.59
2023-05-08T10:47:47.780Z,99939.65
2023-05-08T10:50:56.483Z,99940.64
2023-05-08T10:53:54.425Z,99933.91
2023-05-08T10:56:46.586Z,99932.27
2023-05-08T10:59:39.695Z,99928.59
2023-05-08T11:02:37.874Z,99931.61
2023-05-08T11:05:30.045Z,99921.73
2023-05-08T11:08:24.674Z,99925.15
2023-05-08T11:11:24.589Z,99931.72
2023-05-08T11:14:18.131Z,99929.61
2023-05-08T11:17:11.579Z,99926.93
2023-05-08T11:20:05.594Z,99926.42
2023-05-08T11:22:57.551Z,99925.29
2023-05-08T11:25:49.649Z,99921.35
2023-05-08T11:28:57.847Z,99921.14
2023-05-08T11:31:55.880Z,99925.37
2023-05-08T11:34:51.172Z,99924.88
2023-05-08T11:38:03.084Z,99929.17
2023-05-08T11:41:02.847Z,99927.45
2023-05-08T11:44:17.921Z,99925.73
2023-05-08T11:47:04.538Z,99926.39
2023-05-08T11:50:00.261Z,99918.66
2023-05-08T11:52:54.044Z,99916.52
2023-05-08T11:55:36.183Z,99920.66
2023-05-08T11:58:28.225Z,99917.15
2023-05-08T12:01:22.404Z,99920.29
2023-05-08T12:04:15.129Z,99922.75
2023-05-08T12:07:07.206Z,99915.67
2023-05-08T12:10:01.570Z,99914.91
2023-05-08T12:12:53.768Z,99914.23
2023-05-08T12:15:46.056Z,99907.85
2023-05-08T12:18:39.724Z,99908.30
2023-05-08T12:21:32.156Z,99910.50
2023-05-08T12:24:25.390Z,99918.60
2023-05-08T12:27:17.362Z,99918.14
2023-05-08T12:30:12.173Z,99911.18
2023-05-08T12:33:05.808Z,99911.41
2023-05-08T12:35:58.148Z,99915.56
2023-05-08T12:38:51.451Z,99914.02
2023-05-08T12:41:27.648Z,99911.73
2023-05-08T12:44:04.864Z,99908.95
2023-05-08T12:46:59.080Z,99909.73
2023-05-08T12:49:52.586Z,99904.52
2023-05-08T12:52:44.897Z,99898.49
2023-05-08T12:55:38.797Z,99901.39
2023-05-08T12:58:22.308Z,99890.34
2023-05-08T13:01:10.258Z,99889.58
2023-05-08T13:04:03.345Z,99895.58
2023-05-08T13:06:59.041Z,99892.37
2023-05-08T13:09:58.937Z,99887.57
2023-05-08T13:12:50.991Z,99886.15
2023-05-08T13:15:43.186Z,99889.45
2023-05-08T13:18:36.798Z,99886.91
2023-05-08T13:21:17.717Z,99887.63
2023-05-08T13:24:10.321Z,99892.83
2023-05-08T13:27:03.129Z,99895.45
2023-05-08T13:29:55.106Z,99893.06
2023-05-08T13:32:47.124Z,99890.67
2023-05-08T13:35:39.316Z,99892.00
2023-05-08T13:38:31.288Z,99887.02
2023-05-08T13:41:23.469Z,99886.51
2023-05-08T13:44:15.447Z,99888.06
2023-05-08T13:47:07.804Z,99890.96
2023-05-08T13:49:59.833Z,99888.86
2023-05-08T13:52:54.477Z,99889.58
2023-05-08T14:19:10.274Z,99865.73
2023-05-08T14:22:02.421Z,99864.66
2023-05-08T14:24:54.569Z,99863.45
2023-05-08T14:27:46.565Z,99869.98
2023-05-08T14:30:20.955Z,99868.66
2023-05-08T14:33:12.949Z,99870.15
2023-05-08T14:36:05.043Z,99868.66
2023-05-08T14:38:57.106Z,99867.23
2023-05-08T14:42:08.925Z,99869.79
2023-05-08T14:45:01.257Z,99872.83
2023-05-08T14:47:36.315Z,99873.98
2023-05-08T14:50:28.608Z,99875.14
2023-05-08T14:53:20.752Z,99873.61
2023-05-08T14:56:13.728Z,99878.86
2023-05-08T14:59:06.054Z,99874.56
2023-05-08T15:01:58.119Z,99878.35
2023-05-08T15:04:50.194Z,99880.30
2023-05-08T15:07:42.324Z,99879.33
2023-05-08T15:10:34.503Z,99878.67
2023-05-08T15:13:27.046Z,99878.33
2023-05-08T15:16:19.194Z,99876.64
2023-05-08T15:19:11.208Z,99876.30
2023-05-08T15:22:03.714Z,99873.32
2023-05-08T15:24:55.686Z,99871.20
2023-05-08T15:27:36.274Z,99869.73
2023-05-08T15:30:18.963Z,99871.66
2023-05-08T15:33:11.576Z,99869.04
2023-05-08T15:36:03.522Z,99864.95
2023-05-08T15:38:55.561Z,99870.46
2023-05-08T15:41:47.630Z,99863.64
2023-05-08T15:44:53.901Z,99857.70
2023-05-08T15:47:47.125Z,99855.27
2023-05-08T15:50:39.156Z,99858.94
2023-05-08T15:53:31.206Z,99855.74
2023-05-08T15:56:24.690Z,99854.29
2023-05-08T15:59:16.730Z,99854.63
2023-05-08T16:02:09.128Z,99853.23
2023-05-08T16:05:01.277Z,99853.85
2023-05-08T16:07:55.425Z,99861.61
2023-05-08T16:10:48.448Z,99858.36
2023-05-08T16:13:40.396Z,99860.71
2023-05-08T16:16:32.455Z,99860.60
2023-05-08T16:19:24.502Z,99854.91
2023-05-08T16:22:16.612Z,99851.29
2023-05-08T16:25:10.195Z,99847.30
2023-05-08T16:28:02.317Z,99842.73
2023-05-08T16:30:54.270Z,99842.52
2023-05-08T16:33:46.258Z,99846.53
2023-05-08T16:36:38.522Z,99847.19
2023-05-08T16:39:30.681Z,99848.89
2023-05-08T16:42:22.659Z,99845.90
2023-05-08T16:45:15.281Z,99849.41
2023-05-08T16:48:07.813Z,99851.14
2023-05-08T16:50:59.858Z,99852.04
2023-05-08T16:53:51.940Z,99855.20
2023-05-08T16:56:44.118Z,99856.46
2023-05-08T16:59:25.191Z,99858.42
2023-05-08T17:02:19.047Z,99859.70
2023-05-08T17:05:12.046Z,99855.19
2023-05-08T17:08:04.135Z,99855.73
2023-05-08T17:10:56.015Z,99857.67
2023-05-08T17:13:48.118Z,99858.02
2023-05-08T17:16:40.225Z,99858.91
2023-05-08T17:19:32.235Z,99860.49
2023-05-08T17:22:24.206Z,99861.19
2023-05-08T17:25:07.016Z,99859.60
2023-05-08T17:27:58.970Z,99862.58
2023-05-08T17:30:51.253Z,99863.48
2023-05-08T17:33:43.164Z,99866.25
2023-05-08T17:36:35.155Z,99858.91
2023-05-08T17:39:27.160Z,99857.34
2023-05-08T17:42:19.136Z,99849.63
2023-05-08T17:45:12.471Z,99852.79
2023-05-08T17:48:04.488Z,99848.73
2023-05-08T17:50:56.450Z,99853.44
2023-05-08T17:53:48.448Z,99857.45
2023-05-08T17:56:40.465Z,99855.52
2023-05-08T17:59:32.498Z,99856.20
2023-05-08T18:02:24.559Z,99862.32
2023-05-08T18:05:16.749Z,99863.70
2023-05-08T18:08:09.428Z,99862.65
2023-05-08T18:11:01.413Z,99865.27
2023-05-08T18:13:54.855Z,99866.98
2023-05-08T18:16:49.496Z,99872.05
2023-05-08T18:19:41.459Z,99872.55
2023-05-08T18:22:33.449Z,99872.88
2023-05-08T18:25:25.330Z,99877.05
2023-05-08T18:28:17.314Z,99879.15
2023-05-08T18:31:09.390Z,99878.29
2023-05-08T18:34:02.130Z,99879.88
2023-05-08T18:36:36.625Z,99881.79
2023-05-08T18:39:20.445Z,99881.96
2023-05-08T18:42:12.533Z,99883.71
2023-05-08T18:45:05.989Z,99891.58
2023-05-08T18:47:58.148Z,99888.61
2023-05-08T18:50:50.127Z,99892.80
2023-05-08T18:53:42.099Z,99892.63
2023-05-08T18:56:34.234Z,99895.25
2023-05-08T18:59:26.360Z,99897.13
2023-05-08T19:02:18.365Z,99898.17
2023-05-08T19:05:10.935Z,99895.54
2023-05-08T19:07:54.434Z,99894.12
2023-05-08T19:10:36.647Z,99895.66
2023-05-08T19:13:13.948Z,99896.33
2023-05-08T19:15:48.863Z,99897.70
2023-05-08T19:18:40.846Z,99894.89
2023-05-08T19:21:32.936Z,99894.67
2023-05-08T19:24:08.454Z,99895.89
2023-05-08T19:27:00.597Z,99892.20
2023-05-08T19:29:52.625Z,99889.91
2023-05-08T19:32:44.789Z,99891.97
2023-05-08T19:35:36.904Z,99895.98
2023-05-08T19:38:28.952Z,99889.84
2023-05-08T19:41:20.958Z,99894.68
2023-05-08T19:44:13.047Z,99892.74
2023-05-08T19:47:05.418Z,99891.13
2023-05-08T19:49:57.417Z,99885.69
2023-05-08T19:52:49.762Z,99884.95
2023-05-08T19:55:41.752Z,99884.36
2023-05-08T19:58:33.804Z,99885.02
2023-05-08T20:01:25.803Z,99884.64
2023-05-08T20:04:17.952Z,99881.45
2023-05-08T20:06:57.136Z,99878.77
2023-05-08T20:09:49.131Z,99871.40
2023-05-08T20:12:41.053Z,99877.65
2023-05-08T20:15:33.176Z,99873.06
2023-05-08T20:18:25.215Z,99873.55
2023-05-08T20:21:17.171Z,99871.59
2023-05-08T20:24:09.560Z,99872.06
2023-05-08T20:27:01.597Z,99868.02
2023-05-08T20:29:53.580Z,99866.73
2023-05-08T20:32:30.755Z,99866.18
2023-05-08T20:35:22.879Z,99864.41
2023-05-08T20:38:16.050Z,99865.41
2023-05-08T20:41:08.178Z,99866.60
2023-05-08T20:44:00.143Z,99867.61
2023-05-08T20:46:52.320Z,99868.27
2023-05-08T20:49:44.242Z,99863.86
2023-05-08T20:52:38.010Z,99864.02
2023-05-08T20:55:30.871Z,99863.29
2023-05-08T20:58:22.850Z,99862.89
2023-05-08T21:01:00.020Z,99863.04
2023-05-08T21:03:37.669Z,99861.27
2023-05-08T21:06:29.839Z,99858.47
2023-05-08T21:09:21.808Z,99855.98
2023-05-08T21:11:59.180Z,99853.84
2023-05-08T21:14:51.492Z,99858.49
2023-05-08T21:17:43.659Z,99853.55
2023-05-08T21:20:36.069Z,99853.33
2023-05-08T21:23:28.054Z,99849.30
2023-05-08T21:26:23.433Z,99849.45
2023-05-08T21:29:15.393Z,99852.23
2023-05-08T21:32:10.108Z,99853.75
2023-05-08T21:34:57.955Z,99852.33
2023-05-08T21:37:53.850Z,99851.27
2023-05-08T21:40:46.564Z,99850.38
2023-05-08T21:43:27.547Z,99850.37
2023-05-08T21:46:19.583Z,99850.70
2023-05-08T21:49:11.999Z,99847.21
2023-05-08T21:52:03.939Z,99845.27
2023-05-08T21:54:55.981Z,99846.27
2023-05-08T21:57:48.035Z,99843.27
2023-05-08T22:00:23.629Z,99840.27
2023-05-08T22:03:15.907Z,99843.36
2023-05-08T22:06:08.636Z,99839.83
2023-05-08T22:09:00.600Z,99841.36
2023-05-08T22:11:52.715Z,99840.80
2023-05-08T22:14:44.675Z,99838.50
2023-05-08T22:17:36.780Z,99839.33
2023-05-08T22:20:28.891Z,99835.10
2023-05-08T22:23:20.943Z,99828.11
2023-05-08T22:26:12.928Z,99828.89
2023-05-08T22:29:04.871Z,99829.02
2023-05-08T22:31:56.979Z,99828.98
2023-05-08T22:34:49.838Z,99829.63
2023-05-08T22:37:41.936Z,99829.57
2023-05-08T22:40:34.462Z,99822.05
2023-05-08T22:43:26.654Z,99821.84
2023-05-08T22:46:19.136Z,99818.27
2023-05-08T22:49:11.350Z,99817.55
2023-05-08T22:52:03.407Z,99814.39
2023-05-08T22:54:55.396Z,99819.21
2023-05-08T22:57:29.757Z,99814.86
2023-05-08T23:00:22.682Z,99818.42
2023-05-08T23:03:00.172Z,99820.29
2023-05-08T23:05:52.302Z,99816.80
2023-05-08T23:08:44.296Z,99819.58
2023-05-08T23:11:36.468Z,99814.34
2023-05-08T23:14:28.445Z,99815.36
2023-05-08T23:17:20.451Z,99811.17
2023-05-08T23:20:13.820Z,99812.89
2023-05-08T23:23:05.869Z,99809.70
2023-05-08T23:26:00.952Z,99804.45
2023-05-08T23:28:52.978Z,99803.03
2023-05-08T23:31:45.068Z,99800.86
2023-05-08T23:34:37.106Z,99806.38
2023-05-08T23:37:29.210Z,99801.81
2023-05-08T23:40:21.279Z,99805.40
2023-05-08T23:43:13.261Z,99802.20
2023-05-08T23:46:06.500Z,99799.21
2023-05-08T23:48:58.498Z,99796.23
2023-05-08T23:51:50.447Z,99795.64
2023-05-08T23:54:42.552Z,99795.23
2023-05-08T23:57:34.606Z,99795.88
